createdAt,value
2018-11-21T00:03:41.203Z,93.84
2018-11-21T00:06:09.973Z,93.62
2018-11-21T00:08:38.306Z,93.18
2018-11-21T00:11:07.443Z,94.02
2018-11-21T00:13:54.711Z,93.95
2018-11-21T00:16:44.485Z,95.20
2018-11-21T00:19:13.129Z,94.73
2018-11-21T00:21:41.714Z,94.85
2018-11-21T00:24:10.282Z,94.99
2018-11-21T00:26:38.610Z,95.57
2018-11-21T00:29:25.944Z,95.73
2018-11-21T00:31:54.658Z,96.09
2018-11-21T00:34:42.206Z,96.53
2018-11-21T00:37:10.568Z,97.46
2018-11-21T00:39:38.967Z,96.48
2018-11-21T00:42:07.427Z,96.79
2018-11-21T00:44:35.803Z,97.55
2018-11-21T00:47:23.293Z,98.00
2018-11-21T00:49:51.954Z,97.87
2018-11-21T00:52:20.326Z,97.85
2018-11-21T00:55:07.654Z,98.31
2018-11-21T00:57:36.012Z,98.92
2018-11-21T01:00:04.581Z,99.01
2018-11-21T01:02:51.944Z,99.66
2018-11-21T01:05:39.541Z,100.00
2018-11-21T01:08:07.878Z,100.00
2018-11-21T01:10:36.627Z,99.12
2018-11-21T01:13:05.008Z,98.31
2018-11-21T01:15:33.351Z,98.57
2018-11-21T01:18:20.478Z,99.64
2018-11-21T01:21:07.750Z,98.92
2018-11-21T01:23:36.168Z,98.55
2018-11-21T01:26:23.462Z,98.00
2018-11-21T01:28:52.185Z,98.25
2018-11-21T01:33:55.159Z,98.13
2018-11-21T01:36:23.527Z,98.85
2018-11-21T01:39:11.317Z,99.58
2018-11-21T01:41:40.019Z,98.60
2018-11-21T01:44:08.814Z,99.01
2018-11-21T01:46:37.808Z,97.90
2018-11-21T01:49:06.252Z,97.71
2018-11-21T01:51:34.716Z,97.10
2018-11-21T01:54:21.848Z,96.81
2018-11-21T01:56:50.675Z,96.83
2018-11-21T01:59:38.113Z,98.15
2018-11-21T02:02:06.541Z,96.75
2018-11-21T02:04:53.625Z,97.66
2018-11-21T02:07:22.369Z,97.88
2018-11-21T02:09:50.706Z,97.18
2018-11-21T02:12:19.446Z,96.30
2018-11-21T02:15:06.733Z,96.33
2018-11-21T02:17:35.428Z,96.44
2018-11-21T02:20:03.837Z,96.31
2018-11-21T02:22:32.506Z,96.53
2018-11-21T02:25:01.527Z,96.53
2018-11-21T02:27:30.255Z,98.99
2018-11-21T02:29:58.639Z,98.48
2018-11-21T02:32:26.963Z,97.12
2018-11-21T02:35:14.510Z,97.32
2018-11-21T02:37:42.860Z,98.66
2018-11-21T02:40:11.232Z,99.07
2018-11-21T02:42:39.580Z,99.90
2018-11-21T02:45:08.072Z,100.00
2018-11-21T02:47:36.778Z,99.19
2018-11-21T02:50:05.221Z,98.17
2018-11-21T02:52:33.617Z,98.03
2018-11-21T02:55:21.201Z,97.96
2018-11-21T02:57:49.806Z,97.23
2018-11-21T03:00:19.730Z,98.15
2018-11-21T03:02:48.176Z,98.30
2018-11-21T03:05:16.974Z,98.59
2018-11-21T03:08:04.230Z,98.06
2018-11-21T03:10:32.578Z,97.78
2018-11-21T03:13:01.231Z,97.10
2018-11-21T03:15:29.624Z,97.10
2018-11-21T03:18:17.004Z,97.16
2018-11-21T03:21:04.082Z,98.07
2018-11-21T03:23:32.874Z,98.60
2018-11-21T03:26:01.168Z,99.15
2018-11-21T03:28:29.518Z,98.61
2018-11-21T03:30:58.194Z,97.77
2018-11-21T03:33:26.573Z,98.42
2018-11-21T03:35:55.293Z,99.37
2018-11-21T03:38:23.692Z,100.00
2018-11-21T03:40:52.074Z,100.00
2018-11-21T03:43:20.405Z,100.00
2018-11-21T03:45:48.794Z,100.00
2018-11-21T03:48:17.117Z,100.00
2018-11-21T03:50:45.484Z,100.00
2018-11-21T03:53:14.159Z,100.00
2018-11-21T03:55:42.816Z,100.00
2018-11-21T03:58:11.211Z,99.51
2018-11-21T04:00:47.390Z,99.28
2018-11-21T04:03:16.045Z,100.00
2018-11-21T04:05:44.399Z,99.49
2018-11-21T04:08:31.731Z,99.91
2018-11-21T04:11:00.046Z,99.65
2018-11-21T04:13:28.733Z,99.11
2018-11-21T04:15:57.921Z,98.78
2018-11-21T04:18:45.244Z,98.33
2018-11-21T04:21:14.319Z,98.21
2018-11-21T04:24:01.581Z,98.27
2018-11-21T04:26:49.061Z,98.99
2018-11-21T04:29:36.431Z,98.88
2018-11-21T04:32:04.816Z,98.32
2018-11-21T04:34:52.148Z,97.88
2018-11-21T04:39:54.593Z,97.93
2018-11-21T04:42:22.962Z,98.27
2018-11-21T04:44:51.634Z,98.74
2018-11-21T04:47:20.014Z,96.60
2018-11-21T04:49:49.060Z,95.44
2018-11-21T04:52:36.383Z,94.34
2018-11-21T04:55:04.883Z,94.38
2018-11-21T04:57:52.159Z,94.06
2018-11-21T05:00:20.520Z,96.58
2018-11-21T05:02:49.362Z,96.45
2018-11-21T05:05:18.235Z,95.42
2018-11-21T05:07:50.995Z,95.89
2018-11-21T05:10:20.042Z,97.60
2018-11-21T05:12:48.698Z,98.55
2018-11-21T05:15:17.804Z,99.80
2018-11-21T05:20:33.755Z,100.00
2018-11-21T05:23:02.127Z,100.00
2018-11-21T05:25:31.201Z,100.00
2018-11-21T05:28:18.274Z,100.00
2018-11-21T05:30:46.893Z,99.57
2018-11-21T05:33:15.620Z,98.11
2018-11-21T05:35:44.020Z,95.96
2018-11-21T05:38:13.102Z,94.77
2018-11-21T05:43:16.423Z,95.52
2018-11-21T05:45:45.467Z,95.82
2018-11-21T05:48:13.827Z,96.17
2018-11-21T05:50:42.227Z,96.14
2018-11-21T05:53:29.601Z,96.52
2018-11-21T05:55:58.676Z,95.99
2018-11-21T05:58:46.279Z,97.83
2018-11-21T06:01:33.592Z,97.29
2018-11-21T06:04:01.911Z,97.54
2018-11-21T06:06:31.002Z,95.69
2018-11-21T06:09:18.272Z,95.43
2018-11-21T06:12:05.706Z,95.04
2018-11-21T06:14:53.338Z,96.49
2018-11-21T06:17:40.731Z,97.14
2018-11-21T06:20:28.059Z,96.89
2018-11-21T06:22:56.552Z,96.90
2018-11-21T06:25:25.078Z,97.80
2018-11-21T06:28:12.676Z,96.89
2018-11-21T06:31:00.232Z,95.36
2018-11-21T06:33:47.833Z,94.96
2018-11-21T06:36:16.843Z,96.03
2018-11-21T06:38:45.631Z,96.62
2018-11-21T06:41:13.933Z,97.17
2018-11-21T06:43:42.273Z,97.58
2018-11-21T06:46:10.997Z,98.46
2018-11-21T06:48:58.581Z,98.60
2018-11-21T06:51:26.964Z,99.34
2018-11-21T06:53:55.692Z,99.41
2018-11-21T06:56:24.036Z,100.00
2018-11-21T07:01:45.688Z,98.17
2018-11-21T07:06:48.108Z,97.73
2018-11-21T07:09:16.791Z,97.18
2018-11-21T07:11:46.891Z,97.87
2018-11-21T07:19:41.487Z,96.47
2018-11-21T07:22:10.098Z,96.38
2018-11-21T07:24:38.859Z,94.73
2018-11-21T07:27:07.550Z,93.83
2018-11-21T07:29:35.944Z,92.81
2018-11-21T07:32:23.195Z,91.95
2018-11-21T07:35:10.331Z,90.67
2018-11-21T07:37:39.435Z,89.07
2018-11-21T07:40:26.711Z,88.49
2018-11-21T07:43:14.000Z,88.89
2018-11-21T07:46:01.112Z,89.33
2018-11-21T07:48:29.446Z,87.71
2018-11-21T07:51:16.704Z,85.71
2018-11-21T07:53:45.392Z,85.81
2018-11-21T07:56:32.679Z,86.46
2018-11-21T07:59:20.132Z,85.56
2018-11-21T08:02:07.605Z,85.64
2018-11-21T08:04:55.077Z,84.73
2018-11-21T08:07:42.133Z,84.51
2018-11-21T08:10:19.582Z,85.57
2018-11-21T08:13:25.578Z,84.34
2018-11-21T08:16:06.499Z,84.03
2018-11-21T08:18:53.699Z,81.87
2018-11-21T08:21:40.809Z,80.11
2018-11-21T08:24:46.870Z,80.81
2018-11-21T08:27:33.971Z,81.18
2018-11-21T08:30:02.693Z,80.55
2018-11-21T08:32:31.034Z,80.70
2018-11-21T08:35:01.820Z,80.94
2018-11-21T08:37:48.918Z,81.03
2018-11-21T08:40:36.178Z,78.92
2018-11-21T08:43:04.563Z,79.22
2018-11-21T08:45:32.875Z,77.62
2018-11-21T08:50:36.290Z,79.59
2018-11-21T08:53:23.391Z,78.88
2018-11-21T08:55:51.734Z,78.59
2018-11-21T08:58:38.814Z,77.83
2018-11-21T09:03:55.547Z,76.55
2018-11-21T09:06:42.901Z,75.36
2018-11-21T09:09:30.039Z,73.87
2018-11-21T09:11:58.622Z,75.05
2018-11-21T09:14:45.907Z,76.43
2018-11-21T09:17:14.599Z,76.69
2018-11-21T09:19:42.990Z,74.17
2018-11-21T09:25:23.186Z,77.59
2018-11-21T09:27:51.643Z,74.27
2018-11-21T09:30:38.914Z,73.32
2018-11-21T09:33:07.600Z,73.08
2018-11-21T09:35:35.961Z,75.13
2018-11-21T09:38:04.361Z,75.82
2018-11-21T09:40:52.045Z,74.01
2018-11-21T09:43:39.649Z,74.75
2018-11-21T09:46:08.083Z,73.96
2018-11-21T09:48:55.200Z,72.84
2018-11-21T09:51:24.003Z,73.10
2018-11-21T09:53:52.823Z,73.46
2018-11-21T09:56:21.269Z,72.29
2018-11-21T09:59:08.375Z,73.12
2018-11-21T10:01:55.627Z,72.10
2018-11-21T10:04:23.989Z,73.19
2018-11-21T10:06:52.651Z,73.14
2018-11-21T10:09:42.887Z,73.05
2018-11-21T10:12:30.007Z,71.93
2018-11-21T10:15:17.098Z,71.49
2018-11-21T10:18:04.401Z,71.39
2018-11-21T10:20:33.033Z,72.67
2018-11-21T10:23:20.178Z,71.65
2018-11-21T10:25:48.478Z,72.55
2018-11-21T10:31:09.806Z,71.32
2018-11-21T10:33:56.919Z,71.83
2018-11-21T10:36:44.184Z,70.41
2018-11-21T10:39:31.443Z,72.17
2018-11-21T10:41:59.827Z,71.58
2018-11-21T10:44:46.975Z,72.26
2018-11-21T10:47:34.298Z,72.40
2018-11-21T10:50:21.541Z,70.76
2018-11-21T10:53:09.069Z,71.29
2018-11-21T10:55:56.186Z,70.83
2018-11-21T10:58:43.295Z,71.04
2018-11-21T11:01:49.350Z,70.43
2018-11-21T11:04:25.044Z,69.76
2018-11-21T11:07:12.638Z,70.27
2018-11-21T11:10:00.169Z,70.00
2018-11-21T11:12:47.174Z,70.63
2018-11-21T11:15:34.635Z,71.20
2018-11-21T11:18:21.722Z,70.99
2018-11-21T11:21:16.654Z,71.57
2018-11-21T11:24:03.801Z,71.02
2018-11-21T11:26:50.922Z,69.79
2018-11-21T11:29:38.425Z,70.19
2018-11-21T11:32:25.588Z,71.20
2018-11-21T11:35:13.060Z,69.70
2018-11-21T11:38:00.328Z,70.86
2018-11-21T11:40:47.438Z,70.24
2018-11-21T11:43:34.590Z,72.07
2018-11-21T11:46:40.630Z,70.83
2018-11-21T11:49:27.858Z,70.05
2018-11-21T11:52:33.929Z,70.60
2018-11-21T11:55:21.110Z,70.58
2018-11-21T11:58:08.289Z,70.28
2018-11-21T12:01:14.348Z,69.79
2018-11-21T12:04:01.615Z,70.93
2018-11-21T12:06:49.492Z,70.14
2018-11-21T12:09:36.626Z,70.45
2018-11-21T12:12:42.652Z,70.57
2018-11-21T12:15:29.830Z,70.21
2018-11-21T12:18:35.822Z,69.92
2018-11-21T12:21:41.873Z,70.06
2018-11-21T12:24:47.947Z,70.21
2018-11-21T12:27:34.538Z,70.43
2018-11-21T12:30:22.077Z,70.90
2018-11-21T12:33:09.273Z,71.63
2018-11-21T12:35:57.140Z,71.16
2018-11-21T12:38:44.938Z,70.45
2018-11-21T12:41:32.092Z,71.00
2018-11-21T12:44:19.343Z,70.58
2018-11-21T12:47:06.471Z,71.66
2018-11-21T12:49:53.625Z,71.17
2018-11-21T12:52:59.601Z,70.74
2018-11-21T12:56:05.723Z,71.15
2018-11-21T12:58:53.102Z,71.59
2018-11-21T13:01:40.287Z,71.15
2018-11-21T13:04:27.523Z,70.79
2018-11-21T13:07:15.061Z,71.21
2018-11-21T13:10:02.316Z,70.98
2018-11-21T13:12:49.409Z,71.15
2018-11-21T13:15:55.430Z,70.74
2018-11-21T13:18:42.942Z,70.96
2018-11-21T13:21:30.312Z,71.03
2018-11-21T13:24:17.378Z,71.06
2018-11-21T13:27:04.488Z,71.62
2018-11-21T13:29:51.888Z,71.32
2018-11-21T13:32:39.048Z,70.97
2018-11-21T13:35:45.091Z,70.39
2018-11-21T13:38:32.699Z,69.98
2018-11-21T13:41:38.694Z,70.07
2018-11-21T13:44:25.849Z,70.39
2018-11-21T13:47:13.111Z,70.76
2018-11-21T13:50:00.256Z,71.39
2018-11-21T13:52:47.367Z,70.53
2018-11-21T13:55:34.933Z,70.75
2018-11-21T13:58:03.804Z,71.79
2018-11-21T14:00:32.200Z,71.93
2018-11-21T14:03:00.622Z,71.62
2018-11-21T14:05:28.970Z,73.63
2018-11-21T14:07:57.756Z,72.09
2018-11-21T14:10:26.435Z,72.59
2018-11-21T14:15:28.391Z,72.98
2018-11-21T14:17:57.529Z,72.76
2018-11-21T14:20:44.230Z,73.54
2018-11-21T14:23:31.306Z,73.22
2018-11-21T14:26:00.262Z,72.47
2018-11-21T14:28:29.366Z,73.14
2018-11-21T14:31:16.948Z,72.96
2018-11-21T14:33:45.624Z,72.61
2018-11-21T14:36:14.331Z,72.90
2018-11-21T14:38:42.750Z,72.97
2018-11-21T14:41:30.002Z,73.54
2018-11-21T14:44:17.104Z,73.58
2018-11-21T14:46:46.505Z,73.48
2018-11-21T14:49:33.780Z,73.76
2018-11-21T14:54:49.798Z,73.81
2018-11-21T14:57:18.180Z,74.40
2018-11-21T14:59:46.553Z,74.70
2018-11-21T15:02:14.905Z,74.14
2018-11-21T15:07:49.550Z,74.45
2018-11-21T15:10:17.927Z,75.41
2018-11-21T15:18:14.994Z,74.89
2018-11-21T15:20:43.978Z,74.37
2018-11-21T15:23:12.721Z,74.74
2018-11-21T15:26:03.205Z,74.85
2018-11-21T15:28:33.969Z,75.94
2018-11-21T15:31:02.719Z,75.06
2018-11-21T15:33:50.048Z,75.10
2018-11-21T15:36:37.313Z,75.31
2018-11-21T15:39:07.991Z,75.58
2018-11-21T15:41:36.650Z,76.23
2018-11-21T15:44:05.397Z,75.09
2018-11-21T15:46:34.665Z,75.31
2018-11-21T15:49:03.058Z,75.93
2018-11-21T15:51:50.361Z,75.85
2018-11-21T15:54:18.734Z,75.49
2018-11-21T15:57:05.789Z,75.11
2018-11-21T15:59:53.359Z,75.83
2018-11-21T16:10:20.623Z,75.74
2018-11-21T16:12:49.467Z,75.15
2018-11-21T16:15:20.225Z,75.56
2018-11-21T16:17:48.832Z,75.71
2018-11-21T16:20:18.058Z,75.21
2018-11-21T16:23:05.178Z,75.59
2018-11-21T16:25:33.539Z,75.32
2018-11-21T16:28:01.975Z,74.84
2018-11-21T16:35:58.763Z,74.45
2018-11-21T16:38:27.702Z,74.29
2018-11-21T16:40:56.193Z,73.87
2018-11-21T16:43:24.560Z,73.51
2018-11-21T16:45:54.859Z,73.49
2018-11-21T16:48:42.178Z,74.05
2018-11-21T16:51:10.900Z,73.64
2018-11-21T16:53:39.284Z,74.03
2018-11-21T16:56:07.618Z,72.38
2018-11-21T16:58:36.049Z,73.03
2018-11-21T17:01:04.378Z,73.63
2018-11-21T17:03:33.117Z,72.03
2018-11-21T17:06:01.502Z,72.63
2018-11-21T17:08:29.834Z,72.48
2018-11-21T17:13:32.258Z,73.04
2018-11-21T17:16:00.581Z,72.49
2018-11-21T17:18:28.944Z,72.42
2018-11-21T17:21:16.023Z,72.61
2018-11-21T17:23:44.364Z,72.84
2018-11-21T17:26:12.699Z,71.59
2018-11-21T17:28:59.981Z,71.50
2018-11-21T17:36:36.437Z,71.07
2018-11-21T17:39:25.380Z,71.45
2018-11-21T17:41:54.162Z,71.32
2018-11-21T17:44:22.553Z,71.05
2018-11-21T17:47:10.054Z,70.40
2018-11-21T17:49:57.179Z,70.59
2018-11-21T17:54:59.959Z,70.71
2018-11-21T17:57:48.594Z,71.65
2018-11-21T18:00:18.606Z,71.32
2018-11-21T18:02:47.332Z,70.17
2018-11-21T18:05:17.228Z,71.37
2018-11-21T18:07:45.875Z,71.26
2018-11-21T18:10:16.114Z,71.09
2018-11-21T18:12:45.066Z,71.36
2018-11-21T18:15:14.126Z,70.59
2018-11-21T18:17:43.301Z,71.97
2018-11-21T18:30:33.143Z,70.37
2018-11-21T18:33:20.251Z,71.03
2018-11-21T18:35:48.581Z,70.75
2018-11-21T18:38:17.642Z,70.61
2018-11-21T18:40:46.444Z,70.68
2018-11-21T18:43:14.875Z,70.02
2018-11-21T18:45:44.687Z,70.18
2018-11-21T18:51:07.388Z,70.37
2018-11-21T18:53:55.020Z,70.25
2018-11-21T18:56:45.393Z,70.36
2018-11-21T18:59:29.643Z,70.94
2018-11-21T19:02:17.054Z,70.65
2018-11-21T19:05:04.532Z,70.83
2018-11-21T19:07:52.136Z,71.54
2018-11-21T19:10:39.603Z,71.09
2018-11-21T19:13:27.693Z,71.13
2018-11-21T19:15:56.461Z,71.71
2018-11-21T19:18:43.816Z,71.96
2018-11-21T19:21:31.125Z,71.45
2018-11-21T19:23:59.569Z,71.64
2018-11-21T19:26:27.972Z,70.73
2018-11-21T19:28:56.909Z,70.85
2018-11-21T19:31:29.570Z,70.96
2018-11-21T19:33:53.896Z,70.64
2018-11-21T19:36:23.066Z,71.48
2018-11-21T19:38:51.883Z,71.95
2018-11-21T19:41:20.296Z,71.91
2018-11-21T19:44:07.412Z,72.25
2018-11-21T19:46:36.118Z,72.38
2018-11-21T19:49:04.549Z,72.31
2018-11-21T19:51:32.922Z,72.65
2018-11-21T19:54:01.690Z,72.42
2018-11-21T19:56:49.011Z,72.29
2018-11-21T19:59:36.229Z,72.22
2018-11-21T20:02:04.613Z,71.94
2018-11-21T20:04:33.799Z,72.25
2018-11-21T20:07:21.590Z,73.06
2018-11-21T20:09:50.027Z,72.45
2018-11-21T20:15:22.216Z,72.46
2018-11-21T20:18:10.394Z,72.89
2018-11-21T20:20:39.427Z,73.07
2018-11-21T20:23:26.714Z,72.06
2018-11-21T20:28:46.226Z,72.42
2018-11-21T20:31:34.189Z,72.06
2018-11-21T20:34:03.033Z,72.03
2018-11-21T20:36:31.796Z,72.21
2018-11-21T20:39:00.678Z,71.87
2018-11-21T20:44:21.317Z,72.16
2018-11-21T20:52:36.124Z,71.73
2018-11-21T20:57:42.910Z,72.30
2018-11-21T21:03:01.173Z,71.42
2018-11-21T21:08:55.270Z,71.41
2018-11-21T21:11:43.410Z,71.63
2018-11-21T21:17:18.896Z,71.27
2018-11-21T21:20:06.162Z,71.63
2018-11-21T21:25:29.418Z,71.00
2018-11-21T21:27:58.264Z,71.54
2018-11-21T21:30:45.337Z,71.77
2018-11-21T21:33:32.948Z,72.00
2018-11-21T21:36:20.086Z,72.25
2018-11-21T21:39:07.223Z,72.00
2018-11-21T21:41:35.854Z,72.24
2018-11-21T21:44:04.176Z,72.08
2018-11-21T21:46:33.252Z,71.17
2018-11-21T21:49:01.649Z,71.58
2018-11-21T21:51:30.282Z,71.48
2018-11-21T21:54:17.863Z,71.43
2018-11-21T21:56:46.503Z,71.56
2018-11-21T21:59:14.892Z,72.41
2018-11-21T22:02:01.949Z,71.34
2018-11-21T22:04:49.311Z,72.31
2018-11-21T22:07:17.665Z,72.51
2018-11-21T22:12:15.233Z,72.44
2018-11-21T22:14:43.907Z,72.21
2018-11-21T22:17:31.404Z,72.08
2018-11-21T22:19:59.764Z,72.19
2018-11-21T22:22:28.167Z,72.02
2018-11-21T22:24:56.533Z,72.30
2018-11-21T22:27:43.602Z,71.82
2018-11-21T22:32:49.103Z,73.17
2018-11-21T22:35:18.864Z,72.22
2018-11-21T22:37:51.387Z,72.58
2018-11-21T22:40:34.458Z,72.50
2018-11-21T22:43:21.743Z,72.46
2018-11-21T22:45:50.069Z,73.26
2018-11-21T22:51:11.774Z,72.26
2018-11-21T22:53:40.123Z,72.49
2018-11-21T22:56:08.462Z,72.48
2018-11-21T22:58:36.803Z,72.33
2018-11-21T23:01:05.505Z,72.88
2018-11-21T23:03:33.875Z,72.73
2018-11-21T23:06:02.470Z,72.79
2018-11-21T23:08:30.850Z,72.19
2018-11-21T23:10:59.183Z,72.96
2018-11-21T23:13:46.454Z,71.90
2018-11-21T23:16:17.096Z,71.13
2018-11-21T23:19:04.224Z,71.99
2018-11-21T23:21:32.610Z,71.41
2018-11-21T23:24:01.764Z,71.76
2018-11-21T23:26:49.045Z,70.58
2018-11-21T23:31:52.446Z,71.85
2018-11-21T23:34:20.774Z,71.55
2018-11-21T23:37:08.226Z,72.01
2018-11-21T23:39:55.338Z,72.19
2018-11-21T23:42:42.788Z,71.45
2018-11-21T23:45:29.876Z,72.06
2018-11-21T23:48:17.305Z,72.07
2018-11-21T23:51:04.375Z,71.60
2018-11-21T23:53:32.774Z,72.27
2018-11-21T23:56:01.801Z,71.67
2018-11-21T23:58:30.240Z,71.88
